Time;durP1;ratioP1;P1;durP2;ratioP2;P2;SDS_P1;SDS_P2;PMS_P1;PMS_P2;Temp;Humidity;BMP_temperature;BMP_pressure;BME280_temperature;BME280_humidity;BME280_pressure;Samples;Min_cycle;Max_cycle;Signal;HPM_P1;HPM_P2
2021/11/08 00:01:51;;;;;;;50.63;36.78;;;;;;;14.77;65.63;100606.34;5030066;28;20046;-80
2021/11/08 00:04:17;;;;;;;44.83;34.50;;;;;;;14.93;65.66;100638.72;5039850;28;20037;-82
2021/11/08 00:06:42;;;;;;;51.92;35.00;;;;;;;14.79;65.55;100609.84;5036614;28;20042;-83
2021/11/08 00:09:08;;;;;;;49.13;36.22;;;;;;;14.98;65.14;100627.22;5029401;28;20041;-82
2021/11/08 00:11:34;;;;;;;57.72;36.45;;;;;;;14.94;65.35;100641.38;5037248;28;20034;-82
2021/11/08 00:14:01;;;;;;;49.13;33.03;;;;;;;14.81;65.31;100617.78;5035656;28;20037;-81
2021/11/08 00:16:36;;;;;;;50.63;34.88;;;;;;;14.94;65.15;100622.00;5023299;28;20052;-82
2021/11/08 00:21:44;;;;;;;43.75;34.95;;;;;;;14.73;66.08;100626.69;5028085;28;20424;-82
2021/11/08 00:24:12;;;;;;;46.90;34.28;;;;;;;14.63;66.43;100600.41;5026992;28;20036;-80
2021/11/08 00:26:38;;;;;;;52.20;34.65;;;;;;;14.76;66.07;100615.19;5016743;28;20037;-81
2021/11/08 00:29:04;;;;;;;45.38;33.60;;;;;;;14.81;65.81;100597.50;5029513;28;20530;-81
2021/11/08 00:31:30;;;;;;;49.10;33.88;;;;;;;14.93;65.58;100604.38;5027806;28;20119;-81
2021/11/08 00:33:55;;;;;;;51.53;33.67;;;;;;;14.83;65.88;100608.94;5021000;28;20454;-81
2021/11/08 00:36:21;;;;;;;53.90;34.15;;;;;;;14.60;66.67;100589.88;5019228;28;20034;-82
2021/11/08 00:38:47;;;;;;;46.47;34.20;;;;;;;14.03;68.14;100587.94;5026357;28;20124;-80
2021/11/08 00:41:13;;;;;;;50.33;34.28;;;;;;;13.96;69.29;100575.72;5030440;28;20057;-80
2021/11/08 00:43:39;;;;;;;47.78;33.65;;;;;;;14.52;67.74;100596.13;5028522;28;20059;-81
2021/11/08 00:46:05;;;;;;;57.35;34.33;;;;;;;14.74;66.74;100580.88;5027470;28;20480;-80
2021/11/08 00:48:35;;;;;;;50.22;34.63;;;;;;;14.67;66.58;100568.66;5027732;28;20033;-80
2021/11/08 00:51:00;;;;;;;56.55;33.00;;;;;;;14.75;66.35;100564.13;5027366;28;20042;-81
2021/11/08 00:53:27;;;;;;;48.95;32.80;;;;;;;14.45;66.76;100560.13;5027340;28;20041;-81
2021/11/08 00:55:54;;;;;;;57.28;34.40;;;;;;;14.53;66.79;100575.84;5029701;28;20030;-80
2021/11/08 00:58:26;;;;;;;46.55;33.50;;;;;;;14.81;66.30;100588.72;5027797;28;20034;-80
2021/11/08 01:00:51;;;;;;;53.05;33.60;;;;;;;14.85;65.77;100571.94;5025614;28;20037;-80
2021/11/08 01:03:20;;;;;;;42.88;33.35;;;;;;;14.88;65.45;100571.88;5023469;28;20049;-77
2021/11/08 01:05:46;;;;;;;44.28;32.95;;;;;;;14.82;65.66;100569.31;5027514;28;20536;-81
2021/11/08 01:08:11;;;;;;;44.83;34.10;;;;;;;14.91;65.77;100591.22;5020730;28;20083;-80
2021/11/08 01:10:37;;;;;;;48.88;32.08;;;;;;;14.99;65.17;100568.16;5024108;28;20068;-79
2021/11/08 01:13:03;;;;;;;45.17;33.78;;;;;;;15.13;64.77;100586.44;5023726;28;20083;-81
2021/11/08 01:15:28;;;;;;;46.10;34.08;;;;;;;15.14;64.60;100582.03;5019811;28;20026;-82
2021/11/08 01:17:54;;;;;;;42.65;32.35;;;;;;;14.76;65.22;100573.78;5018439;28;20459;-80
2021/11/08 01:20:21;;;;;;;47.33;35.15;;;;;;;14.15;67.80;100591.28;5028811;28;20067;-81
2021/11/08 01:22:48;;;;;;;54.05;35.95;;;;;;;13.70;68.85;100566.31;5012039;28;20478;-80
2021/11/08 01:25:14;;;;;;;54.28;37.08;;;;;;;13.34;70.10;100551.72;5026658;28;20434;-81
2021/11/08 01:27:43;;;;;;;48.15;35.92;;;;;;;13.52;69.23;100570.84;5030454;28;20032;-81
2021/11/08 01:30:17;;;;;;;44.10;32.70;;;;;;;13.49;69.94;100573.53;5033017;28;20051;-79
2021/11/08 01:35:35;;;;;;;52.20;37.20;;;;;;;13.20;69.93;100547.38;5026810;28;20045;-82
2021/11/08 01:38:21;;;;;;;54.25;34.38;;;;;;;13.44;70.26;100563.94;5028464;28;20041;-80
2021/11/08 01:40:48;;;;;;;44.28;33.80;;;;;;;13.80;68.63;100551.25;5013323;28;20041;-80
2021/11/08 01:43:13;;;;;;;45.85;33.70;;;;;;;13.35;69.95;100533.25;5025036;28;20092;-80
2021/11/08 01:45:40;;;;;;;48.45;34.80;;;;;;;13.62;69.82;100553.19;5012957;28;20469;-81
2021/11/08 01:48:07;;;;;;;46.40;35.35;;;;;;;13.73;69.16;100537.25;5021916;28;20581;-81
2021/11/08 01:50:33;;;;;;;49.08;33.08;;;;;;;13.45;69.66;100544.59;5021009;28;20049;-79
2021/11/08 01:52:59;;;;;;;47.05;33.25;;;;;;;13.87;68.46;100548.53;5014184;28;20420;-80
2021/11/08 01:55:26;;;;;;;46.25;33.97;;;;;;;13.99;67.75;100536.09;5029218;28;20052;-78
2021/11/08 01:57:52;;;;;;;44.05;31.63;;;;;;;13.43;69.13;100522.63;5021654;28;20026;-79
2021/11/08 02:00:19;;;;;;;49.80;34.90;;;;;;;13.46;69.22;100552.47;5026449;28;20048;-80
2021/11/08 02:02:45;;;;;;;51.70;34.83;;;;;;;13.53;69.22;100540.09;5025832;28;20057;-80
2021/11/08 02:05:11;;;;;;;46.55;34.38;;;;;;;13.34;69.45;100523.59;5022297;28;20469;-82
2021/11/08 02:07:38;;;;;;;51.33;32.13;;;;;;;13.44;69.34;100543.72;5023216;28;20033;-79
2021/11/08 02:10:05;;;;;;;46.92;34.40;;;;;;;13.94;68.16;100546.69;5026873;28;20147;-81
2021/11/08 02:12:32;;;;;;;41.28;32.00;;;;;;;13.58;68.78;100529.50;5025974;28;20431;-81
2021/11/08 02:14:59;;;;;;;49.63;34.90;;;;;;;13.65;68.38;100503.06;5026256;28;20037;-79
2021/11/08 02:17:24;;;;;;;50.95;33.72;;;;;;;13.36;69.59;100520.94;5023565;28;20695;-80
2021/11/08 02:19:55;;;;;;;42.80;31.10;;;;;;;12.78;71.30;100504.75;5024967;28;20033;-82
2021/11/08 02:22:21;;;;;;;50.97;35.10;;;;;;;13.51;69.35;100502.34;5018014;28;20033;-82
2021/11/08 02:24:46;;;;;;;38.67;31.42;;;;;;;13.17;69.94;100500.00;5026629;28;20424;-82
2021/11/08 02:27:12;;;;;;;49.70;32.85;;;;;;;13.62;68.68;100512.75;5025512;28;20033;-81
2021/11/08 02:29:38;;;;;;;50.88;36.42;;;;;;;13.85;68.07;100525.69;5025629;28;20040;-81
2021/11/08 02:32:04;;;;;;;50.45;34.53;;;;;;;13.51;69.29;100536.63;5020756;28;20029;-77
2021/11/08 02:34:30;;;;;;;50.22;34.30;;;;;;;13.58;69.00;100513.69;5012864;28;20084;-79
2021/11/08 02:36:56;;;;;;;52.88;37.05;;;;;;;12.87;70.25;100485.34;5028482;28;20511;-79
2021/11/08 02:39:30;;;;;;;45.00;35.83;;;;;;;13.25;69.85;100514.00;5026269;28;20029;-80
2021/11/08 02:41:56;;;;;;;40.40;31.23;;;;;;;13.09;70.21;100515.03;5020832;28;20090;-79
2021/11/08 02:44:21;;;;;;;45.85;34.88;;;;;;;13.21;69.93;100514.03;5024292;28;20033;-79
2021/11/08 02:46:47;;;;;;;40.53;33.15;;;;;;;13.43;68.89;100534.03;5020046;28;20033;-82
2021/11/08 02:49:15;;;;;;;48.47;35.83;;;;;;;13.73;67.77;100531.97;5019509;28;20551;-79
2021/11/08 02:51:48;;;;;;;44.38;33.95;;;;;;;13.35;68.39;100527.13;5039917;28;20032;-80
2021/11/08 02:54:27;;;;;;;47.03;35.80;;;;;;;13.32;68.66;100509.53;5026323;28;20049;-80
2021/11/08 02:56:52;;;;;;;45.58;33.65;;;;;;;13.41;67.84;100483.09;5023905;28;20123;-80
2021/11/08 02:59:18;;;;;;;42.35;33.10;;;;;;;13.49;67.42;100488.31;5024379;28;20940;-80
2021/11/08 03:01:46;;;;;;;41.13;32.53;;;;;;;13.47;68.15;100509.41;5019263;28;20038;-80
2021/11/08 03:04:16;;;;;;;42.72;34.75;;;;;;;13.61;66.98;100493.44;5023332;28;20166;-81
2021/11/08 03:06:41;;;;;;;46.97;31.60;;;;;;;13.84;66.34;100506.38;5015306;28;20086;-79
2021/11/08 03:09:20;;;;;;;40.00;30.88;;;;;;;13.95;65.92;100524.69;5026508;28;20924;-80
2021/11/08 03:11:47;;;;;;;42.05;32.20;;;;;;;14.13;65.35;100532.38;5024285;28;20120;-81
2021/11/08 03:14:22;;;;;;;40.50;32.92;;;;;;;14.11;65.15;100517.47;5018811;28;20042;-81
2021/11/08 03:16:56;;;;;;;41.08;30.88;;;;;;;14.21;64.78;100528.75;5018455;28;20049;-77
2021/11/08 03:19:37;;;;;;;41.47;31.63;;;;;;;14.19;64.50;100502.41;5022649;28;20041;-77
2021/11/08 03:22:18;;;;;;;40.53;31.88;;;;;;;14.45;64.31;100541.66;5021147;28;20041;-80
2021/11/08 03:24:52;;;;;;;44.83;32.72;;;;;;;14.13;64.56;100507.75;5026496;28;20033;-78
2021/11/08 03:30:09;;;;;;;48.13;34.25;;;;;;;14.06;64.54;100512.25;5019179;28;20100;-79
2021/11/08 03:32:37;;;;;;;39.90;33.85;;;;;;;14.05;64.29;100512.28;5025483;28;20460;-78
2021/11/08 03:35:08;;;;;;;45.70;35.05;;;;;;;13.75;64.92;100501.19;5020382;28;20040;-78
2021/11/08 03:37:42;;;;;;;43.90;34.10;;;;;;;13.67;65.65;100503.94;5023566;28;20033;-79
2021/11/08 03:40:17;;;;;;;41.33;32.90;;;;;;;13.48;65.57;100483.91;5025258;28;20042;-79
2021/11/08 03:42:45;;;;;;;40.63;33.00;;;;;;;13.60;65.66;100490.81;5019807;28;20038;-81
2021/11/08 03:45:11;;;;;;;57.78;34.03;;;;;;;13.21;66.77;100472.75;5026409;28;20464;-81
2021/11/08 03:47:38;;;;;;;43.55;34.08;;;;;;;13.51;65.88;100474.22;5026400;28;20103;-80
2021/11/08 03:50:05;;;;;;;40.65;32.92;;;;;;;13.63;65.53;100475.84;5027402;28;20033;-80
2021/11/08 03:52:31;;;;;;;45.38;33.20;;;;;;;13.61;65.94;100497.84;5028258;28;20045;-79
2021/11/08 03:54:57;;;;;;;40.47;33.22;;;;;;;13.67;65.52;100490.75;5028927;28;20029;-81
2021/11/08 03:57:23;;;;;;;43.13;33.15;;;;;;;13.96;64.83;100500.06;5022791;28;20378;-81
2021/11/08 03:59:48;;;;;;;44.90;36.50;;;;;;;13.57;65.51;100481.16;5031126;28;20075;-80
2021/11/08 04:02:14;;;;;;;39.55;33.50;;;;;;;13.09;67.09;100473.72;5026322;28;20060;-79
2021/11/08 04:04:39;;;;;;;44.10;31.75;;;;;;;13.20;66.73;100451.66;5026417;28;20041;-80
2021/11/08 04:07:05;;;;;;;41.75;32.78;;;;;;;13.53;66.83;100471.53;5028696;28;20588;-81
2021/11/08 04:09:31;;;;;;;42.42;33.50;;;;;;;13.77;65.42;100451.09;5027559;28;20042;-80
2021/11/08 04:11:57;;;;;;;40.22;33.90;;;;;;;13.54;65.92;100478.59;5029428;28;21048;-80
2021/11/08 04:14:25;;;;;;;48.33;34.08;;;;;;;13.85;66.11;100476.44;5029655;28;20064;-80
2021/11/08 04:16:50;;;;;;;53.80;35.80;;;;;;;13.83;65.54;100436.03;5027522;28;20038;-81
2021/11/08 04:19:17;;;;;;;47.90;37.67;;;;;;;13.94;65.26;100439.41;5028183;28;20508;-81
2021/11/08 04:21:43;;;;;;;43.63;34.58;;;;;;;14.01;65.53;100463.94;5026633;28;20037;-80
2021/11/08 04:24:09;;;;;;;40.28;33.90;;;;;;;14.08;65.70;100481.44;5044617;28;20048;-79
2021/11/08 04:26:37;;;;;;;49.67;34.60;;;;;;;14.01;65.35;100458.66;5029648;28;20033;-79
2021/11/08 04:29:04;;;;;;;46.15;36.60;;;;;;;14.10;65.09;100458.53;5028592;28;20021;-79
2021/11/08 04:31:37;;;;;;;48.13;33.10;;;;;;;14.20;65.38;100469.84;5019413;28;20037;-79
2021/11/08 04:34:17;;;;;;;42.30;32.15;;;;;;;14.17;65.21;100445.28;5021485;28;20037;-80
2021/11/08 04:42:06;;;;;;;44.38;32.63;;;;;;;14.58;64.55;100468.44;5014009;28;20138;-77
2021/11/08 04:55:09;;;;;;;54.78;31.60;;;;;;;14.28;65.08;100498.75;5026622;28;20061;-79
2021/11/08 05:22:57;;;;;;;35.92;29.80;;;;;;;14.66;63.44;100495.59;5025567;28;20079;-80
2021/11/08 05:30:32;;;;;;;42.20;29.77;;;;;;;13.89;64.49;100464.97;5019673;28;20033;-80
2021/11/08 05:32:58;;;;;;;40.85;33.58;;;;;;;13.77;65.38;100486.22;5015449;28;20129;-80
2021/11/08 05:35:24;;;;;;;39.38;32.30;;;;;;;13.95;65.08;100493.03;5021061;28;20040;-80
2021/11/08 05:37:49;;;;;;;33.50;28.45;;;;;;;13.83;65.07;100480.00;5028326;28;20041;-79
2021/11/08 05:40:32;;;;;;;45.55;33.97;;;;;;;13.96;64.24;100478.97;5026411;28;20030;-79
2021/11/08 05:42:59;;;;;;;45.78;34.03;;;;;;;14.43;63.39;100489.75;5025617;28;20036;-80
2021/11/08 05:45:31;;;;;;;39.00;31.10;;;;;;;14.67;62.95;100514.97;5024671;28;20084;-80
2021/11/08 05:47:57;;;;;;;58.65;42.03;;;;;;;14.53;62.83;100489.59;5026043;28;20037;-81
2021/11/08 05:50:22;;;;;;;41.65;35.63;;;;;;;14.65;62.94;100490.34;5020390;28;20493;-79
2021/11/08 05:52:53;;;;;;;41.65;33.63;;;;;;;14.67;62.92;100493.81;5025846;28;20044;-80
2021/11/08 05:55:23;;;;;;;42.95;33.08;;;;;;;14.50;62.78;100488.78;5026771;28;20033;-80
2021/11/08 05:58:17;;;;;;;47.20;33.03;;;;;;;14.17;63.53;100488.34;5026246;28;20044;-79
2021/11/08 06:49:53;;;;;;;50.40;39.20;;;;;;;12.95;68.65;100466.84;5024694;28;20033;-71
2021/11/08 06:52:20;;;;;;;49.00;41.83;;;;;;;12.24;70.19;100463.00;5027427;28;20508;-68
2021/11/08 06:54:48;;;;;;;51.75;43.20;;;;;;;12.26;70.55;100465.59;5026804;28;20044;-67
2021/11/08 06:57:18;;;;;;;56.95;41.85;;;;;;;11.90;70.29;100478.06;5024007;28;20064;-68
2021/11/08 06:59:46;;;;;;;58.17;44.70;;;;;;;12.10;71.13;100492.88;5022710;28;20037;-67
2021/11/08 07:02:13;;;;;;;58.05;44.15;;;;;;;12.72;69.25;100501.28;5021079;28;20053;-67
2021/11/08 07:04:39;;;;;;;54.95;40.58;;;;;;;11.59;72.15;100501.81;5023912;28;20038;-67
2021/11/08 07:07:06;;;;;;;42.88;36.78;;;;;;;12.05;71.08;100485.00;5019543;28;20481;-68
2021/11/08 07:09:33;;;;;;;60.85;40.08;;;;;;;11.60;72.30;100468.50;5015258;28;20057;-68
2021/11/08 07:11:58;;;;;;;54.75;39.83;;;;;;;12.05;71.44;100495.50;5025504;28;20342;-68
2021/11/08 07:14:24;;;;;;;53.65;43.65;;;;;;;12.52;69.62;100472.44;5023038;28;20041;-67
2021/11/08 07:16:49;;;;;;;47.17;39.97;;;;;;;13.04;67.88;100516.78;5022238;28;20112;-68
2021/11/08 07:19:16;;;;;;;47.90;36.08;;;;;;;13.37;66.72;100513.03;5020597;28;20472;-67
2021/11/08 07:21:42;;;;;;;60.65;39.95;;;;;;;12.70;67.55;100524.97;5011748;28;20095;-69
2021/11/08 07:24:08;;;;;;;54.38;40.45;;;;;;;12.71;68.03;100508.28;5025063;28;20037;-69
2021/11/08 07:26:33;;;;;;;44.50;38.28;;;;;;;13.45;66.47;100542.81;5028535;28;20052;-69
2021/11/08 07:28:59;;;;;;;50.47;36.40;;;;;;;13.18;66.18;100514.94;5037138;28;20059;-69
2021/11/08 07:31:25;;;;;;;46.05;36.15;;;;;;;12.94;67.61;100541.47;5028556;28;20037;-68
2021/11/08 07:33:50;;;;;;;44.45;36.95;;;;;;;13.06;67.18;100536.09;5030221;28;20404;-68
2021/11/08 07:36:16;;;;;;;41.28;36.13;;;;;;;12.43;68.19;100528.63;5029702;28;20036;-68
2021/11/08 07:38:41;;;;;;;51.60;37.55;;;;;;;12.04;70.30;100526.22;5017638;28;20045;-69
2021/11/08 07:41:09;;;;;;;43.60;33.67;;;;;;;13.13;67.59;100531.66;5018449;28;20045;-68
2021/11/08 07:43:35;;;;;;;46.95;36.70;;;;;;;12.31;69.10;100499.75;5018332;28;20038;-67
2021/11/08 07:46:01;;;;;;;48.08;37.42;;;;;;;13.44;67.06;100540.22;5028063;28;20466;-68
2021/11/08 07:48:27;;;;;;;59.20;38.88;;;;;;;13.77;65.42;100531.06;5013473;28;20496;-68
2021/11/08 07:50:53;;;;;;;68.68;40.00;;;;;;;14.12;64.58;100572.88;5027948;28;20041;-69
2021/11/08 07:53:18;;;;;;;46.80;38.00;;;;;;;14.33;63.72;100571.72;5027921;28;20072;-69
2021/11/08 07:55:44;;;;;;;48.13;35.47;;;;;;;14.07;64.36;100544.75;5027902;28;20567;-68
2021/11/08 07:58:10;;;;;;;56.58;40.00;;;;;;;14.14;64.04;100549.06;5025887;28;20037;-69
2021/11/08 08:00:38;;;;;;;49.53;35.97;;;;;;;14.51;63.69;100575.00;5015686;28;20053;-69
2021/11/08 08:03:04;;;;;;;46.67;37.80;;;;;;;14.88;62.84;100569.22;5011748;28;20050;-69
2021/11/08 08:05:32;;;;;;;50.65;36.58;;;;;;;14.93;63.03;100570.03;5025504;28;20544;-68
2021/11/08 08:07:57;;;;;;;48.72;37.58;;;;;;;14.97;62.42;100532.97;5022110;28;20037;-68
2021/11/08 08:10:23;;;;;;;54.80;40.22;;;;;;;15.35;61.50;100570.22;5021715;28;20044;-68
2021/11/08 08:12:48;;;;;;;48.53;37.35;;;;;;;15.44;61.20;100571.84;5015601;28;20512;-69
2021/11/08 08:15:15;;;;;;;54.28;35.55;;;;;;;15.45;61.11;100563.88;5031142;28;20116;-69
2021/11/08 08:17:41;;;;;;;49.35;38.25;;;;;;;14.85;62.37;100567.50;5028005;28;20045;-69
2021/11/08 08:20:14;;;;;;;44.83;36.30;;;;;;;14.08;65.24;100572.91;5027121;28;20041;-68
2021/11/08 08:22:40;;;;;;;52.72;38.58;;;;;;;14.63;64.04;100563.44;5031558;28;20040;-68
2021/11/08 08:25:06;;;;;;;48.72;37.67;;;;;;;13.80;65.89;100554.75;5028479;28;20150;-69
2021/11/08 08:27:32;;;;;;;45.28;36.58;;;;;;;13.70;66.62;100547.84;5038577;28;20044;-69
2021/11/08 08:29:58;;;;;;;48.55;36.80;;;;;;;14.50;64.83;100521.31;5030169;28;20068;-69
2021/11/08 08:32:24;;;;;;;53.58;37.80;;;;;;;15.24;62.84;100548.38;5029485;28;20033;-69
2021/11/08 08:34:50;;;;;;;50.28;36.70;;;;;;;14.84;63.40;100554.31;5013029;28;20147;-70
2021/11/08 08:37:16;;;;;;;48.13;35.05;;;;;;;15.11;62.58;100529.22;5027887;28;20449;-68
2021/11/08 08:39:41;;;;;;;58.65;36.50;;;;;;;15.16;63.15;100527.38;5026499;28;20426;-70
2021/11/08 08:42:07;;;;;;;50.45;36.03;;;;;;;15.29;62.14;100531.56;5029785;28;20130;-69
2021/11/08 08:44:33;;;;;;;47.30;36.10;;;;;;;15.76;61.77;100547.50;5025191;28;20041;-68
2021/11/08 08:46:59;;;;;;;43.08;33.17;;;;;;;15.43;62.60;100547.19;5028384;28;20044;-68
2021/11/08 08:49:25;;;;;;;45.63;36.42;;;;;;;15.52;62.20;100543.47;5027137;28;20056;-69
2021/11/08 08:51:52;;;;;;;47.70;35.47;;;;;;;15.03;63.18;100552.25;5026780;28;20038;-69
2021/11/08 08:54:18;;;;;;;44.75;34.95;;;;;;;15.85;62.22;100551.72;5026060;28;20412;-69
2021/11/08 08:56:44;;;;;;;45.15;33.00;;;;;;;16.16;61.23;100546.69;5011123;28;20383;-69
2021/11/08 08:59:09;;;;;;;47.85;33.63;;;;;;;15.61;61.69;100520.38;5027993;28;20037;-69
2021/11/08 09:01:35;;;;;;;45.80;34.17;;;;;;;15.55;61.56;100531.09;5027514;28;20554;-71
2021/11/08 09:04:01;;;;;;;45.85;34.05;;;;;;;15.47;62.19;100517.13;5024062;28;20053;-69
2021/11/08 09:06:27;;;;;;;39.40;32.28;;;;;;;16.39;60.46;100549.72;5020719;28;20403;-70
2021/11/08 09:08:54;;;;;;;44.15;34.60;;;;;;;15.77;61.64;100544.81;5021431;28;20103;-70
2021/11/08 09:11:21;;;;;;;52.03;37.13;;;;;;;16.07;61.56;100555.69;5025614;28;20037;-69
2021/11/08 09:13:47;;;;;;;44.08;33.72;;;;;;;15.99;60.98;100525.84;5026465;28;20079;-70
2021/11/08 09:16:13;;;;;;;44.17;32.47;;;;;;;15.92;61.40;100532.16;5018574;28;20038;-70
2021/11/08 09:18:45;;;;;;;45.58;34.13;;;;;;;16.30;60.96;100531.38;5022185;28;20076;-70
2021/11/08 09:21:12;;;;;;;56.35;33.40;;;;;;;16.51;60.34;100505.34;5015205;28;20033;-69
2021/11/08 09:23:40;;;;;;;38.03;33.83;;;;;;;15.44;62.15;100493.38;5028231;28;20148;-70
2021/11/08 09:26:06;;;;;;;42.47;32.90;;;;;;;15.76;62.19;100511.31;5012252;28;20049;-69
2021/11/08 09:28:32;;;;;;;56.60;34.85;;;;;;;16.67;59.79;100493.47;5025679;28;20045;-69
2021/11/08 09:30:57;;;;;;;45.15;34.83;;;;;;;16.99;58.28;100473.28;5024614;28;20052;-70
2021/11/08 09:33:24;;;;;;;47.90;34.92;;;;;;;16.98;58.63;100484.81;5021642;28;20481;-69
2021/11/08 09:35:53;;;;;;;37.40;32.47;;;;;;;17.37;57.63;100474.94;5013769;28;20064;-70
2021/11/08 09:38:20;;;;;;;41.20;30.95;;;;;;;15.39;62.33;100450.31;5028267;28;20421;-69
2021/11/08 09:40:46;;;;;;;42.38;33.30;;;;;;;15.13;64.16;100466.66;5016090;28;20508;-68
2021/11/08 09:43:14;;;;;;;50.83;31.77;;;;;;;15.78;63.63;100464.53;5025996;28;20037;-69
2021/11/08 09:45:42;;;;;;;47.45;33.78;;;;;;;16.83;59.49;100464.81;5022906;28;20048;-68
2021/11/08 09:48:11;;;;;;;44.00;33.28;;;;;;;17.35;57.65;100447.59;5021263;28;20042;-69
2021/11/08 09:50:38;;;;;;;46.55;34.85;;;;;;;16.54;59.18;100441.69;5013129;28;20033;-69
2021/11/08 09:53:06;;;;;;;49.03;34.90;;;;;;;17.18;58.56;100441.84;5028476;28;20123;-69
2021/11/08 09:55:31;;;;;;;51.05;35.17;;;;;;;16.41;59.71;100431.38;5025997;28;20040;-70
2021/11/08 09:57:57;;;;;;;50.92;35.80;;;;;;;17.19;59.25;100465.69;5025609;28;20388;-70
2021/11/08 10:00:27;;;;;;;42.35;31.92;;;;;;;17.12;58.40;100471.19;5026572;28;20034;-69
2021/11/08 10:02:59;;;;;;;45.33;32.65;;;;;;;17.17;59.04;100466.63;5025532;28;20453;-70
2021/11/08 10:05:30;;;;;;;39.13;34.97;;;;;;;17.45;57.57;100449.06;5023409;28;20036;-70
2021/11/08 10:07:59;;;;;;;54.17;36.78;;;;;;;17.97;56.58;100465.28;5028170;28;20099;-70
2021/11/08 10:10:28;;;;;;;46.13;35.70;;;;;;;18.30;55.28;100454.56;5023836;28;20767;-70
2021/11/08 10:13:05;;;;;;;60.88;38.80;;;;;;;18.75;54.37;100461.97;5025786;28;20157;-70
2021/11/08 10:15:31;;;;;;;45.03;36.22;;;;;;;19.02;53.53;100494.78;5023608;28;20055;-71
2021/11/08 10:17:57;;;;;;;48.67;37.45;;;;;;;18.43;54.45;100478.97;5019483;28;20881;-71
2021/11/08 10:20:35;;;;;;;43.83;37.35;;;;;;;19.01;54.24;100474.44;5027746;28;20078;-69
2021/11/08 10:23:01;;;;;;;50.80;39.50;;;;;;;19.45;52.89;100495.97;5012252;28;20108;-71
2021/11/08 10:25:30;;;;;;;69.75;38.95;;;;;;;18.16;55.22;100502.78;5027193;28;20044;-69
2021/11/08 10:27:55;;;;;;;46.15;38.95;;;;;;;18.74;53.59;100484.16;5025112;28;20048;-69
2021/11/08 10:30:31;;;;;;;47.28;36.40;;;;;;;18.58;54.26;100475.81;5019534;28;20120;-69
2021/11/08 10:33:21;;;;;;;64.97;41.30;;;;;;;19.00;53.74;100490.44;5023625;28;20079;-68
2021/11/08 10:35:56;;;;;;;55.05;37.17;;;;;;;19.56;52.65;100503.56;5025419;28;20041;-69
2021/11/08 10:38:25;;;;;;;59.65;37.22;;;;;;;19.73;51.97;100479.88;5016473;28;20038;-68
2021/11/08 10:40:54;;;;;;;48.92;38.15;;;;;;;20.03;51.79;100509.84;5024366;28;20045;-70
2021/11/08 10:43:56;;;;;;;46.55;36.88;;;;;;;19.65;52.15;100519.22;5026544;28;20367;-71
2021/11/08 10:46:24;;;;;;;73.73;38.37;;;;;;;19.74;52.15;100494.97;5030337;28;20094;-70
2021/11/08 10:48:57;;;;;;;49.10;40.30;;;;;;;19.98;51.53;100509.16;5023061;28;20041;-70
2021/11/08 10:51:24;;;;;;;;;;;;;;;18.41;55.53;100510.03;5015842;28;20037;-70
2021/11/08 10:53:58;;;;;;;53.85;41.53;;;;;;;18.55;55.58;100505.16;5015628;28;19943;-71
2021/11/08 10:56:32;;;;;;;51.58;40.75;;;;;;;18.69;56.01;100533.97;5022855;28;20046;-71
2021/11/08 10:59:02;;;;;;;69.80;44.13;;;;;;;19.00;54.92;100533.88;5013040;28;20037;-71
2021/11/08 11:01:33;;;;;;;50.70;39.10;;;;;;;18.99;55.13;100532.13;5012002;28;20147;-71
2021/11/08 11:04:04;;;;;;;54.28;39.78;;;;;;;18.68;55.88;100517.16;5055972;28;20456;-71
2021/11/08 11:06:50;;;;;;;48.58;38.83;;;;;;;19.53;54.00;100531.19;5024664;28;20039;-70
2021/11/08 11:09:24;;;;;;;56.85;39.30;;;;;;;19.82;53.32;100529.28;5025138;28;20033;-69
2021/11/08 11:12:15;;;;;;;57.58;36.75;;;;;;;20.18;52.36;100537.72;5016902;28;20074;-70
2021/11/08 11:14:49;;;;;;;61.80;36.78;;;;;;;20.50;51.18;100519.59;5011883;28;20091;-67
2021/11/08 11:17:30;;;;;;;58.30;38.25;;;;;;;20.77;50.78;100536.34;5016669;28;20095;-71
2021/11/08 11:20:27;;;;;;;46.80;37.08;;;;;;;20.11;52.75;100543.31;5024068;28;20034;-70
2021/11/08 11:23:01;;;;;;;49.67;36.25;;;;;;;20.00;53.70;100541.06;5024345;28;20056;-69
2021/11/08 11:25:29;;;;;;;44.20;34.10;;;;;;;20.49;51.66;100530.34;5025137;28;20033;-71
2021/11/08 11:27:56;;;;;;;44.20;35.25;;;;;;;20.29;52.30;100513.31;5025983;28;20116;-71
2021/11/08 11:30:26;;;;;;;45.22;36.00;;;;;;;20.59;51.28;100526.41;5024588;28;20053;-70
2021/11/08 11:32:56;;;;;;;45.42;33.83;;;;;;;20.80;50.44;100519.34;5021387;28;20034;-70
2021/11/08 11:35:22;;;;;;;52.83;36.70;;;;;;;19.59;53.27;100528.28;5024547;28;20175;-70
2021/11/08 11:38:02;;;;;;;48.15;37.72;;;;;;;20.05;52.48;100524.91;5023601;28;20422;-69
2021/11/08 11:40:36;;;;;;;53.10;37.92;;;;;;;20.16;52.23;100520.91;5016841;28;20038;-70
2021/11/08 11:43:06;;;;;;;52.90;38.25;;;;;;;20.27;52.68;100514.31;5024860;28;20120;-70
2021/11/08 11:45:53;;;;;;;50.70;35.60;;;;;;;20.64;50.83;100525.28;5025176;28;20030;-70
2021/11/08 11:48:23;;;;;;;55.30;38.17;;;;;;;19.53;54.50;100530.31;5024711;28;20029;-71
2021/11/08 11:50:49;;;;;;;70.55;38.33;;;;;;;19.76;54.68;100534.81;5013773;28;20038;-71
2021/11/08 11:53:15;;;;;;;62.45;39.05;;;;;;;20.08;52.50;100520.31;5018200;28;20048;-70
2021/11/08 11:55:41;;;;;;;50.53;36.30;;;;;;;19.49;53.70;100536.66;5021861;28;20044;-71
2021/11/08 11:58:07;;;;;;;63.58;36.78;;;;;;;20.12;53.02;100523.75;5025647;28;20078;-70
2021/11/08 12:00:38;;;;;;;45.05;35.85;;;;;;;20.74;52.61;100533.78;5024735;28;20432;-71
2021/11/08 12:03:06;;;;;;;66.72;39.90;;;;;;;20.91;51.42;100541.13;5023120;28;20053;-72
2021/11/08 12:05:32;;;;;;;68.15;38.35;;;;;;;20.08;53.39;100544.31;5023561;28;20053;-71
2021/11/08 12:08:00;;;;;;;45.88;35.88;;;;;;;20.55;51.88;100530.94;5018503;28;20042;-71
2021/11/08 12:10:27;;;;;;;52.42;36.22;;;;;;;19.62;53.45;100524.66;5015554;28;20022;-71
2021/11/08 12:12:55;;;;;;;49.28;35.25;;;;;;;19.62;54.04;100516.69;5029209;28;20045;-71
2021/11/08 12:15:29;;;;;;;50.47;37.70;;;;;;;19.45;54.39;100511.06;5029239;28;20059;-71
2021/11/08 12:18:03;;;;;;;52.75;37.00;;;;;;;18.89;55.61;100528.03;5014185;28;20041;-70
2021/11/08 12:20:28;;;;;;;63.67;38.83;;;;;;;19.36;54.71;100525.56;5025872;28;20037;-70
2021/11/08 12:22:55;;;;;;;48.63;36.97;;;;;;;19.62;54.04;100519.34;5026979;28;20064;-71
2021/11/08 12:25:24;;;;;;;59.40;40.17;;;;;;;19.56;53.58;100523.06;5028500;28;20030;-71
2021/11/08 12:28:26;;;;;;;54.92;37.97;;;;;;;20.39;52.15;100537.81;5029497;28;20049;-71
2021/11/08 12:31:06;;;;;;;51.42;37.05;;;;;;;20.17;52.27;100537.78;5024935;28;20021;-71
2021/11/08 12:33:37;;;;;;;50.03;36.17;;;;;;;19.90;53.47;100539.66;5015345;28;20048;-70
2021/11/08 12:36:06;;;;;;;52.53;32.58;;;;;;;19.85;53.10;100536.28;5011734;28;20042;-71
2021/11/08 12:38:35;;;;;;;68.15;36.22;;;;;;;20.48;51.87;100528.59;5028115;28;20121;-70
2021/11/08 12:41:24;;;;;;;46.00;35.58;;;;;;;19.89;52.65;100509.50;5027900;28;20099;-72
2021/11/08 12:43:57;;;;;;;53.13;34.80;;;;;;;19.35;54.71;100490.09;5026298;28;20488;-70
2021/11/08 12:46:35;;;;;;;48.35;33.80;;;;;;;18.26;57.16;100477.72;5027961;28;20034;-70
2021/11/08 12:49:07;;;;;;;54.80;35.10;;;;;;;18.24;57.83;100476.88;5024313;28;20049;-70
2021/11/08 12:51:33;;;;;;;66.25;35.42;;;;;;;18.33;57.98;100487.22;5014511;28;20402;-70
2021/11/08 12:54:13;;;;;;;49.65;34.05;;;;;;;18.56;57.18;100501.56;5029486;28;20136;-70
2021/11/08 12:56:42;;;;;;;41.25;34.25;;;;;;;19.35;54.89;100510.53;5028477;28;20033;-71
2021/11/08 12:59:21;;;;;;;50.90;36.10;;;;;;;18.91;56.29;100505.78;5016982;28;20063;-71
2021/11/08 13:02:11;;;;;;;48.88;35.03;;;;;;;18.22;57.99;100513.25;5027086;28;20041;-69